createdAt,value
2018-05-24T00:01:19.468Z,7.43
2018-05-24T00:03:47.833Z,6.00
2018-05-24T00:06:16.091Z,8.03
2018-05-24T00:08:44.368Z,6.23
2018-05-24T00:11:13.405Z,5.07
2018-05-24T00:13:41.716Z,4.90
2018-05-24T00:16:09.996Z,5.03
2018-05-24T00:18:38.277Z,4.70
2018-05-24T00:21:06.596Z,5.53
2018-05-24T00:23:34.881Z,5.00
2018-05-24T00:26:03.110Z,5.13
2018-05-24T00:28:31.973Z,4.90
2018-05-24T00:31:00.258Z,4.43
2018-05-24T00:33:28.843Z,6.40
2018-05-24T00:35:57.090Z,4.67
2018-05-24T00:38:26.107Z,6.33
2018-05-24T00:40:54.522Z,5.87
2018-05-24T00:43:23.242Z,6.07
2018-05-24T00:45:51.652Z,6.67
2018-05-24T00:48:19.946Z,8.10
2018-05-24T00:50:48.208Z,7.00
2018-05-24T00:53:16.483Z,5.37
2018-05-24T00:55:45.814Z,6.70
2018-05-24T00:58:14.066Z,6.33
2018-05-24T01:00:43.084Z,5.97
2018-05-24T01:03:11.356Z,5.03
2018-05-24T01:05:40.522Z,10.33
2018-05-24T01:08:08.757Z,5.23
2018-05-24T01:10:37.006Z,9.60
2018-05-24T01:13:06.544Z,5.40
2018-05-24T01:15:34.777Z,5.17
2018-05-24T01:18:03.024Z,4.80
2018-05-24T01:20:31.309Z,5.20
2018-05-24T01:22:59.566Z,4.47
2018-05-24T01:25:28.536Z,4.37
2018-05-24T01:27:57.597Z,4.17
2018-05-24T01:30:25.837Z,4.70
2018-05-24T01:32:54.173Z,4.23
2018-05-24T01:35:22.406Z,4.10
2018-05-24T01:37:51.077Z,4.10
2018-05-24T01:40:19.329Z,4.30
2018-05-24T01:42:47.603Z,4.93
2018-05-24T01:45:15.903Z,4.83
2018-05-24T01:47:45.569Z,5.70
2018-05-24T01:50:13.820Z,6.27
2018-05-24T01:52:42.140Z,4.10
2018-05-24T01:55:11.288Z,4.50
2018-05-24T01:57:40.309Z,4.10
2018-05-24T02:00:08.561Z,5.40
2018-05-24T02:02:37.583Z,4.73
2018-05-24T02:05:05.849Z,3.70
2018-05-24T02:07:34.109Z,4.03
2018-05-24T02:10:03.106Z,4.83
2018-05-24T02:12:32.122Z,6.80
2018-05-24T02:15:00.393Z,6.03
2018-05-24T02:17:29.407Z,7.77
2018-05-24T02:19:58.013Z,4.73
2018-05-24T02:22:26.331Z,6.90
2018-05-24T02:24:54.576Z,5.80
2018-05-24T02:27:22.847Z,4.27
2018-05-24T02:29:51.127Z,4.83
2018-05-24T02:32:20.131Z,6.03
2018-05-24T02:34:48.400Z,7.60
2018-05-24T02:37:16.619Z,3.53
2018-05-24T02:39:44.889Z,3.97
2018-05-24T02:42:13.142Z,4.30
2018-05-24T02:44:41.393Z,5.90
2018-05-24T02:47:10.431Z,4.50
2018-05-24T02:49:38.694Z,4.60
2018-05-24T02:52:06.973Z,4.00
2018-05-24T02:54:35.206Z,3.73
2018-05-24T02:57:03.468Z,5.60
2018-05-24T02:59:32.519Z,3.17
2018-05-24T03:02:01.640Z,3.10
2018-05-24T03:04:29.875Z,4.40
2018-05-24T03:06:58.149Z,5.30
2018-05-24T03:09:26.381Z,3.93
2018-05-24T03:11:54.607Z,6.40
2018-05-24T03:14:22.984Z,3.00
2018-05-24T03:16:51.116Z,4.40
2018-05-24T03:19:19.386Z,4.60
2018-05-24T03:21:48.381Z,3.07
2018-05-24T03:24:17.000Z,4.83
2018-05-24T03:26:45.268Z,3.90
2018-05-24T03:29:13.514Z,3.90
2018-05-24T03:31:42.537Z,3.40
2018-05-24T03:34:10.792Z,7.67
2018-05-24T03:36:39.799Z,3.30
2018-05-24T03:39:08.836Z,4.13
2018-05-24T03:41:37.076Z,3.37
2018-05-24T03:44:06.087Z,6.57
2018-05-24T03:46:34.331Z,4.17
2018-05-24T03:49:02.684Z,4.33
2018-05-24T03:51:30.859Z,5.80
2018-05-24T03:53:59.120Z,3.93
2018-05-24T03:56:27.387Z,5.20
2018-05-24T04:02:10.469Z,4.67
2018-05-24T04:04:50.484Z,3.87
2018-05-24T04:07:18.751Z,4.40
2018-05-24T04:09:47.000Z,4.90
2018-05-24T04:12:16.019Z,4.43
2018-05-24T04:14:45.537Z,4.23
2018-05-24T04:17:13.893Z,3.77
2018-05-24T04:19:42.914Z,3.23
2018-05-24T04:22:11.172Z,3.70
2018-05-24T04:24:40.177Z,3.20
2018-05-24T04:27:09.219Z,8.53
2018-05-24T04:29:37.569Z,4.50
2018-05-24T04:32:05.841Z,3.67
2018-05-24T04:34:35.065Z,5.27
2018-05-24T04:37:03.293Z,5.00
2018-05-24T04:39:32.314Z,9.03
2018-05-24T04:42:01.351Z,4.13
2018-05-24T04:44:29.615Z,3.90
2018-05-24T04:46:57.907Z,6.73
2018-05-24T04:49:27.197Z,6.90
2018-05-24T04:51:55.676Z,4.60
2018-05-24T04:54:23.905Z,4.57
2018-05-24T04:56:52.178Z,4.10
2018-05-24T04:59:20.432Z,4.13
2018-05-24T05:01:48.699Z,4.53
2018-05-24T05:04:16.952Z,4.70
2018-05-24T05:06:45.241Z,6.00
2018-05-24T05:09:14.245Z,4.40
2018-05-24T05:11:42.499Z,7.17
2018-05-24T05:14:10.757Z,5.13
2018-05-24T05:16:39.013Z,4.70
2018-05-24T05:19:07.280Z,5.43
2018-05-24T05:21:35.567Z,7.30
2018-05-24T05:24:03.811Z,7.63
2018-05-24T05:26:32.847Z,5.20
2018-05-24T05:29:01.095Z,5.10
2018-05-24T05:31:30.122Z,5.47
2018-05-24T05:33:58.354Z,6.40
2018-05-24T05:36:26.629Z,6.40
2018-05-24T05:38:56.410Z,10.10
2018-05-24T05:41:24.657Z,6.30
2018-05-24T05:43:52.937Z,7.07
2018-05-24T05:46:21.171Z,15.93
2018-05-24T05:48:51.670Z,6.33
2018-05-24T05:51:21.480Z,9.23
2018-05-24T05:53:49.757Z,6.60
2018-05-24T05:56:18.111Z,5.73
2018-05-24T05:58:46.493Z,8.87
2018-05-24T06:01:15.528Z,8.80
2018-05-24T06:03:43.811Z,6.37
2018-05-24T06:06:12.054Z,10.93
2018-05-24T06:08:41.108Z,9.50
2018-05-24T06:11:09.353Z,9.07
2018-05-24T06:13:37.626Z,6.10
2018-05-24T06:16:05.879Z,6.10
2018-05-24T06:18:34.940Z,7.10
2018-05-24T06:21:03.194Z,6.60
2018-05-24T06:23:31.460Z,7.10
2018-05-24T06:26:00.499Z,7.63
2018-05-24T06:28:28.801Z,7.87
2018-05-24T06:30:57.106Z,12.77
2018-05-24T06:33:26.139Z,7.73
2018-05-24T06:35:54.453Z,8.07
2018-05-24T06:38:22.845Z,7.10
2018-05-24T06:40:51.226Z,11.97
2018-05-24T06:43:19.468Z,11.30
2018-05-24T06:45:47.705Z,9.70
2018-05-24T06:48:15.961Z,8.80
2018-05-24T06:50:44.271Z,9.68
2018-05-24T06:53:12.551Z,9.38
2018-05-24T06:55:40.782Z,10.13
2018-05-24T06:58:09.095Z,11.60
2018-05-24T07:00:37.381Z,9.90
2018-05-24T07:03:05.605Z,9.75
2018-05-24T07:05:34.689Z,9.60
2018-05-24T07:08:03.714Z,8.80
2018-05-24T07:10:31.958Z,9.02
2018-05-24T07:13:00.994Z,8.80
2018-05-24T07:15:29.237Z,9.05
2018-05-24T07:17:58.273Z,8.73
2018-05-24T07:20:26.531Z,10.47
2018-05-24T07:22:55.421Z,8.60
2018-05-24T07:25:24.450Z,8.23
2018-05-24T07:27:52.713Z,8.20
2018-05-24T07:30:20.972Z,11.67
2018-05-24T07:32:49.995Z,7.50
2018-05-24T07:35:18.242Z,9.70
2018-05-24T07:37:47.246Z,8.10
2018-05-24T07:40:16.312Z,9.70
2018-05-24T07:42:44.554Z,8.17
2018-05-24T07:45:12.802Z,9.53
2018-05-24T07:47:41.054Z,8.87
2018-05-24T07:50:09.301Z,12.87
2018-05-24T07:52:37.556Z,8.00
2018-05-24T07:55:05.817Z,8.87
2018-05-24T07:57:34.848Z,7.77
2018-05-24T08:00:03.106Z,9.30
2018-05-24T08:02:32.121Z,9.47
2018-05-24T08:05:00.425Z,7.93
2018-05-24T08:07:28.713Z,12.50
2018-05-24T08:09:56.973Z,8.50
2018-05-24T08:12:25.228Z,8.77
2018-05-24T08:14:54.233Z,9.87
2018-05-24T08:17:22.489Z,7.60
2018-05-24T08:19:51.493Z,7.97
2018-05-24T08:22:20.531Z,9.70
2018-05-24T08:24:48.810Z,8.90
2018-05-24T08:27:17.074Z,9.10
2018-05-24T08:29:45.333Z,10.13
2018-05-24T08:32:14.344Z,12.43
2018-05-24T08:34:42.624Z,9.13
2018-05-24T08:37:10.892Z,12.17
2018-05-24T08:39:39.923Z,9.17
2018-05-24T08:42:08.165Z,10.53
2018-05-24T08:44:36.487Z,10.07
2018-05-24T08:47:04.832Z,10.87
2018-05-24T08:49:33.017Z,8.80
2018-05-24T08:52:02.021Z,9.50
2018-05-24T08:54:30.301Z,9.77
2018-05-24T08:56:59.306Z,8.93
2018-05-24T08:59:27.642Z,9.17
2018-05-24T09:01:55.893Z,9.60
2018-05-24T09:04:24.160Z,10.60
2018-05-24T09:06:52.413Z,11.90
2018-05-24T09:09:21.445Z,9.57
2018-05-24T09:11:49.691Z,10.57
2018-05-24T09:14:18.708Z,10.20
2018-05-24T09:16:47.004Z,10.13
2018-05-24T09:19:15.236Z,9.00
2018-05-24T09:21:43.508Z,9.57
2018-05-24T09:24:11.748Z,10.13
2018-05-24T09:26:40.012Z,9.33
2018-05-24T09:29:08.296Z,10.30
2018-05-24T09:31:36.567Z,10.00
2018-05-24T09:34:04.811Z,9.80
2018-05-24T09:36:33.078Z,10.00
2018-05-24T09:39:02.121Z,11.23
2018-05-24T09:41:30.383Z,10.73
2018-05-24T09:43:59.424Z,9.77
2018-05-24T09:46:27.676Z,10.07
2018-05-24T09:48:55.958Z,9.33
2018-05-24T09:51:24.998Z,8.53
2018-05-24T09:53:53.259Z,9.93
2018-05-24T09:56:21.483Z,10.50
2018-05-24T09:58:49.741Z,13.03
2018-05-24T10:01:18.026Z,10.77
2018-05-24T10:03:47.828Z,10.00
2018-05-24T10:06:16.076Z,11.10
2018-05-24T10:08:44.453Z,11.60
2018-05-24T10:11:13.472Z,10.03
2018-05-24T10:13:41.757Z,9.17
2018-05-24T10:16:10.034Z,10.83
2018-05-24T10:18:38.317Z,10.27
2018-05-24T10:21:06.548Z,10.73
2018-05-24T10:23:34.891Z,10.93
2018-05-24T10:26:03.884Z,11.40
2018-05-24T10:28:32.148Z,9.77
2018-05-24T10:31:00.406Z,9.70
2018-05-24T10:33:29.435Z,11.60
2018-05-24T10:35:57.717Z,10.87
2018-05-24T10:38:26.009Z,10.53
2018-05-24T10:40:54.248Z,12.80
2018-05-24T10:43:22.505Z,11.67
2018-05-24T10:45:50.793Z,10.00
2018-05-24T10:48:19.956Z,11.50
2018-05-24T10:50:48.240Z,9.90
2018-05-24T10:53:16.480Z,10.43
2018-05-24T10:55:44.764Z,10.80
2018-05-24T10:58:13.772Z,11.87
2018-05-24T11:00:42.106Z,11.80
2018-05-24T11:03:11.989Z,11.10
2018-05-24T11:05:40.100Z,12.93
2018-05-24T11:08:08.355Z,13.33
2018-05-24T11:10:36.635Z,11.90
2018-05-24T11:13:04.899Z,9.57
2018-05-24T11:15:33.140Z,12.27
2018-05-24T11:18:01.410Z,11.10
2018-05-24T11:20:30.559Z,10.77
2018-05-24T11:22:58.796Z,11.40
2018-05-24T11:25:27.100Z,12.37
2018-05-24T11:27:55.362Z,11.30
2018-05-24T11:30:24.372Z,11.03
2018-05-24T11:32:52.644Z,11.53
2018-05-24T11:35:21.704Z,10.43
2018-05-24T11:37:49.950Z,10.73
2018-05-24T11:40:18.222Z,11.03
2018-05-24T11:42:46.487Z,10.60
2018-05-24T11:45:15.530Z,11.83
2018-05-24T11:47:43.798Z,12.20
2018-05-24T11:50:12.056Z,15.33
2018-05-24T11:52:40.292Z,11.53
2018-05-24T11:55:08.931Z,10.73
2018-05-24T11:57:42.831Z,11.30
2018-05-24T12:00:11.061Z,10.80
2018-05-24T12:02:45.978Z,6.10
2018-05-24T12:05:22.371Z,5.03
2018-05-24T12:07:51.428Z,4.27
2018-05-24T12:10:19.729Z,4.40
2018-05-24T12:12:47.993Z,4.17
2018-05-24T12:15:16.538Z,4.60
2018-05-24T12:17:44.832Z,4.50
2018-05-24T12:20:13.829Z,5.80
2018-05-24T12:22:42.831Z,5.20
2018-05-24T12:25:11.092Z,3.50
2018-05-24T12:27:40.437Z,4.10
2018-05-24T12:30:08.678Z,4.67
2018-05-24T12:32:37.678Z,4.60
2018-05-24T12:35:06.699Z,4.47
2018-05-24T12:37:34.978Z,4.90
2018-05-24T12:40:03.228Z,5.20
2018-05-24T12:42:31.499Z,5.27
2018-05-24T12:44:59.828Z,4.57
2018-05-24T12:47:28.072Z,3.50
2018-05-24T12:49:57.077Z,10.63
2018-05-24T12:52:26.119Z,4.77
2018-05-24T12:54:54.345Z,4.53
2018-05-24T12:57:24.007Z,4.73
2018-05-24T12:59:52.260Z,4.50
2018-05-24T13:02:21.298Z,4.33
2018-05-24T13:04:49.712Z,4.23
2018-05-24T13:07:18.006Z,4.93
2018-05-24T13:09:47.029Z,4.80
2018-05-24T13:12:15.260Z,5.50
2018-05-24T13:14:44.169Z,5.63
2018-05-24T13:17:12.420Z,5.77
2018-05-24T13:19:40.676Z,5.37
2018-05-24T13:22:08.940Z,5.00
2018-05-24T13:24:37.280Z,4.73
2018-05-24T13:27:06.228Z,5.10
2018-05-24T13:29:34.464Z,4.87
2018-05-24T13:32:02.720Z,5.00
2018-05-24T13:34:30.980Z,4.97
2018-05-24T13:36:59.230Z,5.30
2018-05-24T13:39:27.491Z,5.47
2018-05-24T13:41:56.488Z,8.23
2018-05-24T13:44:25.586Z,5.90
2018-05-24T13:46:53.829Z,5.20
2018-05-24T13:49:22.076Z,5.80
2018-05-24T13:51:50.326Z,4.60
2018-05-24T13:54:18.599Z,5.63
2018-05-24T13:56:46.850Z,5.63
2018-05-24T13:59:15.117Z,5.53
2018-05-24T14:01:43.361Z,5.80
2018-05-24T14:04:12.376Z,5.00
2018-05-24T14:06:40.614Z,7.80
2018-05-24T14:09:08.903Z,6.37
2018-05-24T14:11:37.131Z,6.10
2018-05-24T14:14:05.409Z,5.57
2018-05-24T14:16:33.635Z,5.33
2018-05-24T14:19:01.896Z,5.60
2018-05-24T14:21:30.134Z,5.87
2018-05-24T14:23:58.433Z,7.43
2018-05-24T14:26:26.681Z,5.60
2018-05-24T14:28:55.708Z,6.10
2018-05-24T14:31:23.964Z,5.40
2018-05-24T14:33:52.243Z,5.83
2018-05-24T14:36:20.505Z,6.23
2018-05-24T14:38:48.738Z,5.90
2018-05-24T14:41:16.963Z,6.30
2018-05-24T14:43:45.992Z,8.20
2018-05-24T14:46:14.255Z,8.40
2018-05-24T14:48:43.273Z,9.80
2018-05-24T14:51:11.517Z,8.13
2018-05-24T14:53:39.918Z,8.77
2018-05-24T14:56:08.932Z,9.97
2018-05-24T14:58:37.183Z,8.60
2018-05-24T15:01:06.202Z,10.67
2018-05-24T15:03:35.225Z,9.53
2018-05-24T15:06:03.542Z,10.00
2018-05-24T15:08:31.813Z,10.00
2018-05-24T15:11:00.069Z,9.93
2018-05-24T15:13:40.251Z,11.77
2018-05-24T15:16:08.498Z,11.50
2018-05-24T15:18:36.798Z,11.07
2018-05-24T15:21:05.020Z,10.50
2018-05-24T15:23:34.055Z,11.53
2018-05-24T15:26:02.315Z,10.80
2018-05-24T15:28:31.296Z,11.63
2018-05-24T15:31:00.336Z,12.50
2018-05-24T15:33:28.610Z,11.53
2018-05-24T15:35:56.880Z,11.87
2018-05-24T15:38:25.134Z,12.87
2018-05-24T15:40:54.166Z,13.67
2018-05-24T15:43:22.431Z,11.67
2018-05-24T15:45:51.256Z,13.00
2018-05-24T15:48:20.029Z,12.10
2018-05-24T15:50:49.039Z,13.23
2018-05-24T15:53:17.286Z,12.70
2018-05-24T15:55:45.586Z,12.30
2018-05-24T15:58:13.869Z,12.90
2018-05-24T16:00:42.192Z,11.20
2018-05-24T16:03:10.403Z,11.00
2018-05-24T16:05:39.436Z,11.70
2018-05-24T16:08:08.200Z,11.67
2018-05-24T16:10:36.798Z,16.37
2018-05-24T16:13:05.233Z,11.23
2018-05-24T16:15:33.498Z,12.13
2018-05-24T16:18:01.753Z,12.13
2018-05-24T16:20:30.040Z,11.67
2018-05-24T16:22:58.286Z,10.50
2018-05-24T16:25:27.337Z,11.40
2018-05-24T16:27:55.598Z,12.07
2018-05-24T16:30:23.875Z,10.93
2018-05-24T16:32:52.135Z,10.70
2018-05-24T16:35:21.177Z,10.23
2018-05-24T16:37:49.431Z,11.05
2018-05-24T16:40:18.402Z,11.20
2018-05-24T16:42:46.704Z,11.40
2018-05-24T16:45:14.992Z,10.10
2018-05-24T16:47:43.269Z,10.10
2018-05-24T16:50:11.540Z,9.67
2018-05-24T16:52:39.788Z,9.87
2018-05-24T16:55:08.064Z,10.70
2018-05-24T16:57:36.313Z,11.73
2018-05-24T17:00:04.596Z,13.07
2018-05-24T17:02:32.855Z,14.23
2018-05-24T17:05:01.132Z,11.23
2018-05-24T17:07:29.376Z,12.33
2018-05-24T17:09:58.475Z,12.70
2018-05-24T17:12:26.775Z,12.25
2018-05-24T17:14:54.990Z,11.95
2018-05-24T17:17:23.269Z,12.10
2018-05-24T17:19:51.525Z,9.83
2018-05-24T17:22:19.802Z,10.57
2018-05-24T17:24:48.064Z,10.20
2018-05-24T17:27:16.300Z,9.70
2018-05-24T17:29:44.551Z,9.50
2018-05-24T17:32:12.784Z,10.73
2018-05-24T17:34:41.855Z,10.23
2018-05-24T17:37:10.157Z,9.67
2018-05-24T17:39:38.393Z,9.30
2018-05-24T17:42:06.664Z,10.03
2018-05-24T17:44:34.912Z,9.50
2018-05-24T17:47:03.956Z,9.57
2018-05-24T17:49:32.206Z,10.63
2018-05-24T17:52:01.290Z,10.65
2018-05-24T17:54:30.316Z,10.90
2018-05-24T17:56:58.580Z,9.97
2018-05-24T17:59:27.573Z,8.70
2018-05-24T18:01:56.615Z,10.00
2018-05-24T18:04:24.857Z,9.57
2018-05-24T18:06:53.899Z,9.17
2018-05-24T18:09:22.138Z,6.50
2018-05-24T18:11:51.480Z,8.00
2018-05-24T18:14:19.736Z,6.97
2018-05-24T18:16:48.776Z,8.30
2018-05-24T18:19:17.022Z,9.70
2018-05-24T18:21:45.286Z,9.17
2018-05-24T18:24:14.283Z,8.97
2018-05-24T18:26:42.549Z,8.43
2018-05-24T18:29:11.559Z,9.00
2018-05-24T18:31:39.845Z,7.97
2018-05-24T18:34:08.848Z,8.67
2018-05-24T18:36:37.093Z,9.53
2018-05-24T18:39:06.148Z,9.33
2018-05-24T18:41:34.421Z,9.23
2018-05-24T18:44:02.650Z,9.40
2018-05-24T18:46:30.958Z,11.90
2018-05-24T18:48:59.217Z,14.13
2018-05-24T18:51:29.494Z,12.23
2018-05-24T18:53:57.770Z,14.20
2018-05-24T18:56:26.018Z,11.03
2018-05-24T18:58:55.225Z,10.97
2018-05-24T19:01:23.493Z,10.30
2018-05-24T19:03:52.508Z,10.47
2018-05-24T19:06:20.764Z,10.40
2018-05-24T19:08:49.066Z,10.10
2018-05-24T19:11:17.344Z,10.30
2018-05-24T19:13:46.393Z,10.63
2018-05-24T19:16:14.651Z,10.63
2018-05-24T19:18:42.916Z,11.67
2018-05-24T19:21:11.184Z,10.20
2018-05-24T19:23:39.456Z,11.47
2018-05-24T19:26:08.487Z,11.40
2018-05-24T19:28:36.751Z,13.07
2018-05-24T19:31:05.032Z,15.37
2018-05-24T19:33:34.052Z,13.70
2018-05-24T19:36:02.343Z,12.50
2018-05-24T19:38:30.578Z,11.80
2018-05-24T19:40:58.876Z,11.27
2018-05-24T19:43:27.130Z,14.17
2018-05-24T19:45:55.375Z,13.63
2018-05-24T19:48:23.676Z,12.87
2018-05-24T19:50:51.934Z,13.83
2018-05-24T19:53:20.181Z,11.87
2018-05-24T19:55:48.483Z,12.27
2018-05-24T19:58:17.478Z,12.27
2018-05-24T20:00:45.767Z,13.30
2018-05-24T20:03:14.184Z,12.30
2018-05-24T20:05:42.431Z,12.07
2018-05-24T20:08:10.720Z,12.70
2018-05-24T20:10:38.994Z,13.07
2018-05-24T20:13:07.252Z,11.73
2018-05-24T20:15:35.528Z,13.73
2018-05-24T20:18:03.820Z,12.53
2018-05-24T20:20:32.061Z,18.43
2018-05-24T20:23:01.127Z,13.10
2018-05-24T20:25:29.369Z,11.90
2018-05-24T20:27:57.644Z,11.47
2018-05-24T20:30:25.891Z,13.73
2018-05-24T20:32:54.955Z,13.70
2018-05-24T20:35:23.339Z,13.77
2018-05-24T20:37:51.608Z,12.10
2018-05-24T20:40:19.917Z,13.70
2018-05-24T20:42:48.189Z,14.67
2018-05-24T20:45:16.488Z,13.83
2018-05-24T20:47:44.795Z,14.00
2018-05-24T20:50:13.067Z,13.70
2018-05-24T20:52:42.233Z,15.27
2018-05-24T20:55:10.524Z,14.13
2018-05-24T20:57:38.862Z,14.73
2018-05-24T21:00:07.132Z,14.47
2018-05-24T21:02:36.139Z,14.03
2018-05-24T21:05:04.522Z,14.47
2018-05-24T21:07:33.391Z,13.57
2018-05-24T21:10:01.921Z,14.33
2018-05-24T21:12:30.177Z,15.53
2018-05-24T21:14:58.593Z,14.60
2018-05-24T21:17:26.868Z,14.93
2018-05-24T21:19:55.168Z,16.30
2018-05-24T21:22:23.521Z,15.63
2018-05-24T21:24:51.820Z,16.17
2018-05-24T21:27:20.475Z,15.50
2018-05-24T21:29:48.903Z,14.97
2018-05-24T21:32:17.190Z,16.63
2018-05-24T21:34:45.426Z,15.23
2018-05-24T21:37:13.734Z,16.20
2018-05-24T21:39:41.993Z,16.17
2018-05-24T21:42:10.282Z,16.53
2018-05-24T21:44:38.545Z,19.53
2018-05-24T21:47:06.806Z,17.20
2018-05-24T21:49:35.835Z,17.70
2018-05-24T21:52:04.102Z,18.07
2018-05-24T21:54:32.392Z,18.30
2018-05-24T21:57:00.656Z,17.30
2018-05-24T21:59:28.916Z,17.70
2018-05-24T22:01:57.957Z,18.13
2018-05-24T22:04:26.235Z,18.77
2018-05-24T22:06:54.494Z,18.60
2018-05-24T22:09:22.768Z,20.17
2018-05-24T22:11:51.783Z,18.80
2018-05-24T22:14:20.049Z,19.00
2018-05-24T22:16:48.324Z,18.87
2018-05-24T22:19:17.344Z,18.67
2018-05-24T22:21:45.597Z,17.73
2018-05-24T22:24:14.632Z,18.43
2018-05-24T22:26:43.037Z,18.87
2018-05-24T22:29:11.292Z,20.20
2018-05-24T22:31:39.546Z,20.03
2018-05-24T22:34:07.844Z,17.83
2018-05-24T22:36:36.097Z,19.50
2018-05-24T22:39:05.822Z,17.80
2018-05-24T22:41:34.088Z,20.30
2018-05-24T22:44:03.096Z,20.27
2018-05-24T22:46:31.386Z,18.40
2018-05-24T22:48:59.627Z,21.23
2018-05-24T22:51:27.903Z,19.53
2018-05-24T22:53:56.164Z,20.73
2018-05-24T22:56:24.441Z,19.30
2018-05-24T22:58:52.720Z,19.43
2018-05-24T23:01:20.983Z,24.60
2018-05-24T23:03:49.869Z,20.27
2018-05-24T23:06:18.254Z,20.80
2018-05-24T23:08:46.528Z,21.40
2018-05-24T23:11:14.797Z,19.87
2018-05-24T23:13:43.791Z,20.50
2018-05-24T23:16:12.063Z,19.80
2018-05-24T23:18:41.089Z,19.47
2018-05-24T23:21:09.344Z,20.17
2018-05-24T23:23:38.372Z,20.10
2018-05-24T23:26:06.639Z,19.63
2018-05-24T23:28:34.901Z,19.70
2018-05-24T23:31:03.911Z,21.70
2018-05-24T23:33:32.170Z,19.00
2018-05-24T23:36:01.179Z,21.43
2018-05-24T23:38:29.461Z,20.10
2018-05-24T23:40:57.716Z,21.50
2018-05-24T23:43:25.993Z,23.00
2018-05-24T23:45:54.248Z,21.53
2018-05-24T23:48:22.520Z,21.53
2018-05-24T23:50:50.887Z,22.90
2018-05-24T23:53:19.160Z,22.03
2018-05-24T23:55:47.434Z,21.97
2018-05-24T23:58:15.685Z,20.60
